Time;durP1;ratioP1;P1;durP2;ratioP2;P2;SDS_P1;SDS_P2;PMS_P1;PMS_P2;Temp;Humidity;BMP_temperature;BMP_pressure;BME280_temperature;BME280_humidity;BME280_pressure;Samples;Min_cycle;Max_cycle;Signal;HPM_P1;HPM_P2
2020/12/15 00:00:37;;;;;;;3.78;1.77;;;9.30;91.50;;;;;;5072674;28;20052;-82
2020/12/15 00:03:03;;;;;;;4.32;1.85;;;9.30;91.50;;;;;;5073932;28;20082;-83
2020/12/15 00:05:29;;;;;;;6.72;2.22;;;9.30;91.80;;;;;;5071959;28;20064;-82
2020/12/15 00:07:55;;;;;;;2.33;1.80;;;9.30;91.60;;;;;;5073730;28;20381;-82
2020/12/15 00:10:20;;;;;;;2.88;1.55;;;9.30;91.60;;;;;;5038702;28;20037;-82
2020/12/15 00:12:46;;;;;;;3.08;1.60;;;9.30;91.60;;;;;;5071081;28;20028;-83
2020/12/15 00:15:12;;;;;;;3.78;1.63;;;9.30;91.60;;;;;;5052072;28;20047;-82
2020/12/15 00:17:37;;;;;;;3.85;2.20;;;9.30;91.60;;;;;;5073058;28;20024;-83
2020/12/15 00:20:07;;;;;;;3.28;2.00;;;9.30;91.60;;;;;;5073214;28;20040;-82
2020/12/15 00:22:36;;;;;;;3.47;1.92;;;9.30;91.60;;;;;;5068559;28;20485;-82
2020/12/15 00:25:04;;;;;;;2.17;1.55;;;9.20;91.70;;;;;;5075989;28;20029;-82
2020/12/15 00:27:30;;;;;;;3.20;1.67;;;9.30;91.70;;;;;;5073501;28;20041;-82
2020/12/15 00:29:55;;;;;;;4.85;1.73;;;9.20;91.70;;;;;;5072350;28;20078;-82
2020/12/15 00:32:21;;;;;;;2.40;1.65;;;9.20;91.70;;;;;;5073558;28;20410;-82
2020/12/15 00:34:47;;;;;;;3.13;1.75;;;9.20;91.70;;;;;;5072290;28;20489;-82
2020/12/15 00:37:12;;;;;;;4.38;2.00;;;9.20;91.70;;;;;;5072140;28;20489;-82
2020/12/15 00:39:38;;;;;;;4.30;1.70;;;9.20;91.70;;;;;;5071971;28;20036;-82
2020/12/15 00:42:05;;;;;;;6.20;2.15;;;9.20;91.70;;;;;;5071907;28;20127;-82
2020/12/15 00:44:30;;;;;;;7.30;2.00;;;9.20;91.70;;;;;;5071954;28;20031;-81
2020/12/15 00:46:56;;;;;;;3.35;1.80;;;9.20;91.70;;;;;;5055120;28;20028;-82
2020/12/15 00:49:21;;;;;;;3.53;1.80;;;9.20;91.70;;;;;;5071264;28;20056;-82
2020/12/15 00:51:48;;;;;;;2.95;1.85;;;9.20;91.80;;;;;;5071665;28;20037;-82
2020/12/15 00:54:14;;;;;;;3.35;2.08;;;9.20;91.80;;;;;;5073152;28;20095;-81
2020/12/15 00:56:40;;;;;;;2.67;1.70;;;9.20;91.80;;;;;;5072669;28;20036;-76
2020/12/15 00:59:06;;;;;;;2.63;1.67;;;9.20;91.80;;;;;;5071645;28;20063;-76
2020/12/15 01:01:32;;;;;;;6.82;2.10;;;9.20;91.80;;;;;;5054600;28;20075;-76
2020/12/15 01:03:57;;;;;;;6.32;2.15;;;9.20;91.80;;;;;;5071319;28;20450;-76
2020/12/15 01:06:23;;;;;;;4.68;2.10;;;9.20;91.90;;;;;;5071396;28;20029;-76
2020/12/15 01:08:49;;;;;;;2.67;2.00;;;9.20;91.90;;;;;;5071622;28;20031;-76
2020/12/15 01:11:15;;;;;;;2.88;1.88;;;9.10;91.90;;;;;;5053794;28;20024;-76
2020/12/15 01:13:41;;;;;;;3.08;1.98;;;9.20;91.90;;;;;;5071012;28;20024;-76
2020/12/15 01:16:08;;;;;;;5.55;2.42;;;9.20;91.90;;;;;;5071977;28;20031;-76
2020/12/15 01:18:37;;;;;;;4.68;2.33;;;9.20;91.90;;;;;;5076393;28;20031;-75
2020/12/15 01:21:03;;;;;;;2.85;2.30;;;9.20;92.00;;;;;;5092439;28;20069;-76
2020/12/15 01:23:29;;;;;;;5.75;2.28;;;9.10;92.00;;;;;;5082491;28;20029;-76
2020/12/15 01:25:55;;;;;;;5.45;1.92;;;9.10;92.00;;;;;;5082254;28;20472;-76
2020/12/15 01:28:21;;;;;;;4.45;2.15;;;9.10;92.00;;;;;;5072041;28;20032;-76
2020/12/15 01:30:46;;;;;;;4.25;2.17;;;9.10;92.00;;;;;;5071993;28;20021;-76
2020/12/15 01:33:12;;;;;;;5.72;1.95;;;9.10;92.00;;;;;;5071571;28;20017;-76
2020/12/15 01:35:38;;;;;;;5.63;2.05;;;9.10;92.10;;;;;;5072626;28;20534;-76
2020/12/15 01:38:04;;;;;;;3.95;2.03;;;9.10;92.10;;;;;;5071388;28;20020;-82
2020/12/15 01:40:29;;;;;;;4.13;2.20;;;9.10;92.10;;;;;;5072918;28;20043;-81
2020/12/15 01:42:55;;;;;;;6.13;3.05;;;9.10;92.10;;;;;;5071569;28;20033;-82
2020/12/15 01:45:21;;;;;;;4.15;2.25;;;9.10;92.10;;;;;;5071226;28;20029;-76
2020/12/15 01:47:46;;;;;;;4.50;2.15;;;9.10;92.10;;;;;;5070971;28;20032;-75
2020/12/15 01:50:12;;;;;;;4.05;2.25;;;9.10;92.20;;;;;;5071100;28;20532;-76
2020/12/15 01:52:38;;;;;;;3.50;2.05;;;9.10;92.20;;;;;;5070768;28;20036;-76
2020/12/15 01:55:04;;;;;;;3.08;2.05;;;9.10;92.20;;;;;;5071164;28;20120;-76
2020/12/15 01:57:30;;;;;;;3.60;2.25;;;9.10;92.20;;;;;;5050544;28;20106;-76
2020/12/15 01:59:56;;;;;;;2.42;2.20;;;9.10;92.20;;;;;;5070632;28;20056;-76
2020/12/15 02:02:22;;;;;;;5.53;2.72;;;9.10;92.20;;;;;;5080576;28;20492;-75
2020/12/15 02:04:51;;;;;;;3.00;2.17;;;9.10;92.20;;;;;;5074096;28;20139;-76
2020/12/15 02:07:18;;;;;;;5.63;2.60;;;9.10;92.30;;;;;;5074658;28;20024;-76
2020/12/15 02:09:44;;;;;;;4.05;2.70;;;9.10;92.30;;;;;;5074694;28;20105;-76
2020/12/15 02:12:12;;;;;;;3.60;2.60;;;9.10;92.30;;;;;;5075818;28;20032;-76
2020/12/15 02:14:39;;;;;;;3.75;2.38;;;9.10;92.30;;;;;;5072826;28;20037;-76
2020/12/15 02:17:05;;;;;;;4.18;2.58;;;9.10;92.30;;;;;;5056836;28;20112;-76
2020/12/15 02:19:31;;;;;;;5.47;2.90;;;9.10;92.30;;;;;;5077885;28;20019;-75
2020/12/15 02:21:58;;;;;;;3.95;2.30;;;9.00;92.30;;;;;;5074083;28;20384;-76
2020/12/15 02:24:24;;;;;;;6.10;2.70;;;9.10;92.30;;;;;;5078911;28;20103;-76
2020/12/15 02:26:51;;;;;;;5.15;2.97;;;9.10;92.30;;;;;;5095836;28;20031;-76
2020/12/15 02:29:17;;;;;;;4.63;2.92;;;9.10;92.40;;;;;;5075307;28;20111;-76
2020/12/15 02:31:42;;;;;;;3.58;2.42;;;9.10;92.40;;;;;;5074269;28;20107;-76
2020/12/15 02:34:08;;;;;;;5.53;2.80;;;9.10;92.40;;;;;;5073694;28;20075;-76
2020/12/15 02:36:34;;;;;;;3.53;2.28;;;9.10;92.40;;;;;;5053756;28;20036;-76
2020/12/15 02:39:09;;;;;;;4.10;2.67;;;9.10;92.40;;;;;;5068934;28;20017;-76
2020/12/15 02:41:34;;;;;;;4.75;2.63;;;9.10;92.40;;;;;;5074712;28;20035;-76
2020/12/15 02:44:01;;;;;;;3.70;2.60;;;9.10;92.40;;;;;;5074964;28;20099;-76
2020/12/15 02:46:26;;;;;;;3.45;2.45;;;9.10;92.40;;;;;;5073792;28;20033;-76
2020/12/15 02:48:54;;;;;;;6.68;2.67;;;9.10;92.70;;;;;;5075963;28;20079;-76
2020/12/15 02:51:20;;;;;;;4.07;2.67;;;9.00;92.40;;;;;;5076387;28;20362;-76
2020/12/15 02:53:46;;;;;;;4.05;2.60;;;9.10;92.40;;;;;;5076840;28;20034;-76
2020/12/15 02:56:17;;;;;;;3.15;2.50;;;9.00;92.40;;;;;;5077278;28;20385;-76
2020/12/15 02:58:43;;;;;;;6.18;2.97;;;9.00;92.70;;;;;;5076797;28;20031;-76
2020/12/15 03:01:08;;;;;;;4.53;3.03;;;9.00;92.60;;;;;;5076974;28;20536;-76
2020/12/15 03:03:34;;;;;;;4.60;2.80;;;9.00;92.40;;;;;;5076373;28;20137;-76
2020/12/15 03:05:59;;;;;;;6.55;3.30;;;9.00;92.40;;;;;;5060360;28;20107;-76
2020/12/15 03:08:25;;;;;;;3.60;2.70;;;9.00;92.40;;;;;;5059744;28;20036;-76
2020/12/15 03:10:50;;;;;;;13.23;3.72;;;9.00;92.40;;;;;;5094519;28;20154;-75
2020/12/15 03:13:16;;;;;;;4.72;2.80;;;9.00;92.40;;;;;;5093058;28;20032;-76
2020/12/15 03:15:42;;;;;;;4.18;3.08;;;9.00;92.40;;;;;;5056431;28;20077;-76
2020/12/15 03:18:07;;;;;;;5.30;3.10;;;9.00;92.40;;;;;;5076322;28;20034;-76
2020/12/15 03:20:33;;;;;;;4.80;2.90;;;8.90;92.40;;;;;;5043259;28;20028;-76
2020/12/15 03:22:58;;;;;;;6.60;3.40;;;8.90;92.40;;;;;;5076206;28;20039;-76
2020/12/15 03:25:24;;;;;;;4.60;2.92;;;8.90;92.40;;;;;;5071163;28;20567;-75
2020/12/15 03:27:50;;;;;;;4.82;2.97;;;9.00;92.40;;;;;;5082832;28;20028;-76
2020/12/15 03:30:16;;;;;;;5.75;2.90;;;8.90;92.40;;;;;;5094319;28;20558;-76
2020/12/15 03:32:41;;;;;;;4.00;2.90;;;8.90;92.40;;;;;;5075863;28;20024;-76
2020/12/15 03:35:07;;;;;;;3.72;2.67;;;8.90;92.40;;;;;;5076285;28;20058;-76
2020/12/15 03:37:32;;;;;;;4.65;2.90;;;8.90;92.40;;;;;;5076302;28;20111;-76
2020/12/15 03:39:58;;;;;;;5.25;3.30;;;8.90;92.40;;;;;;5059542;28;20089;-76
2020/12/15 03:42:23;;;;;;;4.97;2.67;;;8.90;92.50;;;;;;5086889;28;20032;-76
2020/12/15 03:44:50;;;;;;;4.20;2.83;;;8.90;92.40;;;;;;5078176;28;20123;-76
2020/12/15 03:47:15;;;;;;;4.00;2.58;;;8.90;92.40;;;;;;5057749;28;20123;-76
2020/12/15 03:49:41;;;;;;;3.63;2.90;;;8.90;92.40;;;;;;5059205;28;20126;-76
2020/12/15 03:52:06;;;;;;;4.78;3.15;;;8.90;92.40;;;;;;5056158;28;20024;-76
2020/12/15 03:54:32;;;;;;;3.92;3.03;;;8.90;92.70;;;;;;5076183;28;20028;-76
2020/12/15 03:56:57;;;;;;;4.43;3.15;;;8.90;92.40;;;;;;5042946;28;20465;-75
2020/12/15 03:59:23;;;;;;;4.55;2.90;;;8.90;92.40;;;;;;5093958;28;20056;-76
2020/12/15 04:01:49;;;;;;;3.90;3.28;;;8.90;92.40;;;;;;5055935;28;20438;-75
2020/12/15 04:04:14;;;;;;;5.63;2.85;;;8.90;92.40;;;;;;5075858;28;20032;-76
2020/12/15 04:06:40;;;;;;;4.47;2.80;;;8.90;92.50;;;;;;5075625;28;20099;-76
2020/12/15 04:09:05;;;;;;;4.68;2.88;;;8.90;92.50;;;;;;5093617;28;20028;-76
2020/12/15 04:11:31;;;;;;;3.28;2.70;;;8.90;92.40;;;;;;5057364;28;20036;-76
2020/12/15 04:13:57;;;;;;;6.53;3.08;;;8.90;92.50;;;;;;5076159;28;20035;-76
2020/12/15 04:16:22;;;;;;;5.13;2.92;;;8.90;92.40;;;;;;5057070;28;20029;-76
2020/12/15 04:18:48;;;;;;;3.85;2.92;;;8.90;92.40;;;;;;5078160;28;20039;-76
2020/12/15 04:21:14;;;;;;;5.93;3.15;;;8.90;92.70;;;;;;5075698;28;20107;-76
2020/12/15 04:23:39;;;;;;;4.65;3.17;;;9.00;92.40;;;;;;5058685;28;20119;-76
2020/12/15 04:26:05;;;;;;;6.47;3.08;;;9.00;92.50;;;;;;5075184;28;20056;-76
2020/12/15 04:28:30;;;;;;;4.30;2.90;;;8.90;92.40;;;;;;5075454;28;20036;-76
2020/12/15 04:30:56;;;;;;;5.13;3.15;;;8.90;92.40;;;;;;5092752;28;20038;-76
2020/12/15 04:33:22;;;;;;;5.07;3.33;;;8.90;92.40;;;;;;5075062;28;20074;-77
2020/12/15 04:35:47;;;;;;;7.30;3.22;;;9.00;92.40;;;;;;5075047;28;20084;-76
2020/12/15 04:38:13;;;;;;;5.82;3.20;;;8.90;92.40;;;;;;5093026;28;20020;-76
2020/12/15 04:40:39;;;;;;;4.13;3.25;;;9.00;92.40;;;;;;5050965;28;20186;-76
2020/12/15 04:43:07;;;;;;;4.85;3.60;;;9.00;92.50;;;;;;5072163;28;20525;-76
2020/12/15 04:45:35;;;;;;;3.72;2.85;;;9.00;92.50;;;;;;5075115;28;20028;-76
2020/12/15 04:48:07;;;;;;;3.92;3.53;;;9.00;92.50;;;;;;5074619;28;20035;-76
2020/12/15 04:50:38;;;;;;;5.82;3.25;;;8.90;92.50;;;;;;5074533;28;20032;-76
2020/12/15 04:53:10;;;;;;;5.80;3.50;;;9.00;92.50;;;;;;5058194;28;20068;-76
2020/12/15 04:55:37;;;;;;;5.32;3.53;;;9.00;92.50;;;;;;5092523;28;20105;-76
2020/12/15 04:58:03;;;;;;;4.63;3.33;;;9.00;92.50;;;;;;5074780;28;20020;-75
2020/12/15 05:00:29;;;;;;;7.50;4.03;;;9.00;92.50;;;;;;5074732;28;20130;-76
2020/12/15 05:02:57;;;;;;;4.63;3.20;;;9.10;92.60;;;;;;5075017;28;20059;-76
2020/12/15 05:05:24;;;;;;;4.43;3.38;;;9.00;92.60;;;;;;5075038;28;20024;-76
2020/12/15 05:07:50;;;;;;;6.68;3.55;;;9.00;92.60;;;;;;5074481;28;20088;-76
2020/12/15 05:10:18;;;;;;;5.90;3.67;;;9.00;92.60;;;;;;5074649;28;20028;-76
2020/12/15 05:12:45;;;;;;;5.72;3.75;;;9.10;92.60;;;;;;5092940;28;20028;-76
2020/12/15 05:15:18;;;;;;;5.40;3.38;;;9.10;92.60;;;;;;5058158;28;20035;-76
2020/12/15 05:17:47;;;;;;;5.15;3.40;;;9.10;92.70;;;;;;5057449;28;20024;-76
2020/12/15 05:20:27;;;;;;;6.30;3.40;;;9.10;92.60;;;;;;5104980;28;20051;-76
2020/12/15 05:22:53;;;;;;;4.45;3.35;;;9.10;92.70;;;;;;5078971;28;20447;-83
2020/12/15 05:25:21;;;;;;;3.83;3.38;;;9.00;92.60;;;;;;5093049;28;20023;-84
2020/12/15 05:27:47;;;;;;;5.18;3.45;;;9.10;92.70;;;;;;5093070;28;20027;-83
2020/12/15 05:30:13;;;;;;;6.07;3.75;;;9.10;92.70;;;;;;5092388;28;20568;-84
2020/12/15 05:32:56;;;;;;;4.65;3.60;;;9.10;92.70;;;;;;5074828;28;20028;-84
2020/12/15 05:35:24;;;;;;;7.15;3.88;;;9.10;92.80;;;;;;5075099;28;20016;-83
2020/12/15 05:37:50;;;;;;;9.23;3.70;;;9.00;92.70;;;;;;5070962;28;20039;-84
2020/12/15 05:40:15;;;;;;;4.30;3.40;;;9.00;92.70;;;;;;5095709;28;20028;-84
2020/12/15 05:42:42;;;;;;;6.90;3.72;;;9.10;92.70;;;;;;5080340;28;20115;-76
2020/12/15 05:45:08;;;;;;;6.40;4.18;;;9.10;92.70;;;;;;5109956;27;20441;-76
2020/12/15 05:47:34;;;;;;;5.40;3.22;;;9.10;92.80;;;;;;5092527;28;20068;-76
2020/12/15 05:50:00;;;;;;;8.82;4.32;;;9.10;92.80;;;;;;5074976;28;20040;-76
2020/12/15 05:52:29;;;;;;;7.43;4.55;;;9.10;92.80;;;;;;5098230;28;20472;-76
2020/12/15 05:55:05;;;;;;;6.20;4.22;;;9.10;92.80;;;;;;5078399;28;20399;-76
2020/12/15 05:57:31;;;;;;;5.65;4.20;;;9.10;92.80;;;;;;5096226;28;20536;-76
2020/12/15 06:00:06;;;;;;;10.75;4.55;;;9.10;92.80;;;;;;5077943;28;20036;-76
2020/12/15 06:02:32;;;;;;;5.45;4.35;;;9.10;92.80;;;;;;5061092;28;20045;-76
2020/12/15 06:05:00;;;;;;;5.22;3.83;;;9.10;93.10;;;;;;5096429;28;20041;-76
2020/12/15 06:07:27;;;;;;;6.00;4.00;;;9.10;92.80;;;;;;5061662;28;20024;-84
2020/12/15 06:09:56;;;;;;;7.20;4.60;;;9.10;92.80;;;;;;5092460;28;20028;-85
2020/12/15 06:12:22;;;;;;;7.35;4.47;;;9.10;92.90;;;;;;5096421;28;20032;-76
2020/12/15 06:14:51;;;;;;;5.72;4.10;;;9.10;92.90;;;;;;5096003;28;20498;-76
2020/12/15 06:17:21;;;;;;;5.75;4.28;;;9.10;92.90;;;;;;5077923;28;20048;-76
2020/12/15 06:19:53;;;;;;;7.10;4.07;;;9.10;92.90;;;;;;5096125;28;20028;-76
2020/12/15 06:22:23;;;;;;;5.40;3.92;;;9.10;93.00;;;;;;5077887;28;20028;-76
2020/12/15 06:24:57;;;;;;;4.85;3.92;;;9.10;93.00;;;;;;5077581;28;20468;-76
2020/12/15 06:27:31;;;;;;;4.53;3.88;;;9.10;93.00;;;;;;5076708;28;20016;-76
2020/12/15 06:29:57;;;;;;;7.55;4.55;;;9.10;93.00;;;;;;5068911;28;20133;-74
2020/12/15 06:32:23;;;;;;;5.70;4.75;;;9.10;93.00;;;;;;5077622;28;20417;-74
2020/12/15 06:34:51;;;;;;;6.85;4.53;;;9.10;93.00;;;;;;5085819;28;20070;-74
2020/12/15 06:37:18;;;;;;;6.22;3.97;;;9.10;93.00;;;;;;5094839;28;20376;-74
2020/12/15 06:40:03;;;;;;;6.45;4.07;;;9.10;93.10;;;;;;5095264;28;20377;-74
2020/12/15 06:42:29;;;;;;;6.20;4.50;;;9.10;93.10;;;;;;5094563;28;20043;-74
2020/12/15 06:45:07;;;;;;;6.40;3.88;;;9.10;93.00;;;;;;5076798;28;20028;-74
2020/12/15 06:47:37;;;;;;;7.00;4.18;;;9.10;93.10;;;;;;5079019;28;20374;-73
2020/12/15 06:50:14;;;;;;;5.53;4.03;;;9.20;93.10;;;;;;5077402;28;20045;-74
2020/12/15 06:52:40;;;;;;;6.80;4.75;;;9.20;93.10;;;;;;5095544;28;20476;-74
2020/12/15 06:55:05;;;;;;;7.90;4.57;;;9.20;93.10;;;;;;5095555;28;20030;-74
2020/12/15 06:57:33;;;;;;;7.72;4.75;;;9.20;93.10;;;;;;5060630;28;20021;-74
2020/12/15 07:00:08;;;;;;;7.05;4.53;;;9.20;93.20;;;;;;5095218;28;20052;-73
2020/12/15 07:02:33;;;;;;;7.35;4.75;;;9.20;93.20;;;;;;5078457;28;20056;-74
2020/12/15 07:05:33;;;;;;;6.97;4.90;;;9.20;93.20;;;;;;5060507;28;20055;-73
2020/12/15 07:08:05;;;;;;;8.38;4.65;;;9.20;93.20;;;;;;5043304;28;20044;-74
2020/12/15 07:10:31;;;;;;;5.75;4.38;;;9.20;93.20;;;;;;5076692;28;20036;-74
2020/12/15 07:12:59;;;;;;;7.32;4.97;;;9.20;93.20;;;;;;5095072;28;20399;-74
2020/12/15 07:15:29;;;;;;;6.75;4.40;;;9.20;93.20;;;;;;5077504;28;20392;-81
2020/12/15 07:17:56;;;;;;;12.18;5.20;;;9.20;93.20;;;;;;5076792;28;20380;-81
2020/12/15 07:20:23;;;;;;;6.75;5.32;;;9.20;93.20;;;;;;5077416;28;20043;-81
2020/12/15 07:22:50;;;;;;;9.05;4.95;;;9.20;93.20;;;;;;5095084;28;20024;-81
2020/12/15 07:25:17;;;;;;;6.53;4.63;;;9.30;93.30;;;;;;5095532;28;20023;-81
2020/12/15 07:27:44;;;;;;;7.70;5.28;;;9.30;93.30;;;;;;5060889;28;20032;-81
2020/12/15 07:30:11;;;;;;;8.40;5.22;;;9.30;93.30;;;;;;5077876;28;20035;-80
2020/12/15 07:32:38;;;;;;;9.07;5.25;;;9.30;93.30;;;;;;5095282;28;20032;-80
2020/12/15 07:35:18;;;;;;;7.97;5.22;;;9.30;93.40;;;;;;5094917;28;20093;-82
2020/12/15 07:37:45;;;;;;;8.85;5.60;;;9.30;93.40;;;;;;5078814;28;20020;-81
2020/12/15 07:40:13;;;;;;;9.27;5.78;;;9.30;93.40;;;;;;5094364;28;20034;-81
2020/12/15 07:42:40;;;;;;;9.70;5.53;;;9.30;93.40;;;;;;5093845;28;20381;-84
2020/12/15 07:45:08;;;;;;;8.15;5.22;;;9.30;93.40;;;;;;5094616;28;20020;-84
2020/12/15 07:47:41;;;;;;;8.70;5.20;;;9.30;93.40;;;;;;5094606;28;20024;-82
2020/12/15 07:50:08;;;;;;;7.40;4.90;;;9.30;93.40;;;;;;5076284;28;20145;-81
2020/12/15 07:52:36;;;;;;;9.60;5.65;;;9.30;93.40;;;;;;5076428;28;20025;-82
2020/12/15 07:55:10;;;;;;;9.02;5.38;;;9.40;93.40;;;;;;5076149;28;20031;-74
2020/12/15 07:57:41;;;;;;;7.85;5.20;;;9.40;93.50;;;;;;5076029;28;20059;-75
2020/12/15 08:00:12;;;;;;;11.13;6.03;;;9.40;93.50;;;;;;5093701;28;20476;-74
2020/12/15 08:02:39;;;;;;;10.90;5.53;;;9.40;93.50;;;;;;5094252;28;20043;-81
2020/12/15 08:05:07;;;;;;;8.48;5.55;;;9.40;93.50;;;;;;5076157;28;20020;-82
2020/12/15 08:07:39;;;;;;;9.10;5.50;;;9.40;93.50;;;;;;5076275;28;20028;-82
2020/12/15 08:10:04;;;;;;;11.60;6.05;;;9.40;93.50;;;;;;5076263;28;20028;-82
2020/12/15 08:12:32;;;;;;;9.55;4.78;;;9.40;93.50;;;;;;5075335;28;20032;-82
2020/12/15 08:14:58;;;;;;;9.18;4.97;;;9.50;93.50;;;;;;5094222;28;20028;-81
2020/12/15 08:17:26;;;;;;;7.95;5.15;;;9.40;93.50;;;;;;5094154;28;20472;-81
2020/12/15 08:19:58;;;;;;;7.57;5.57;;;9.50;93.50;;;;;;5076013;28;20016;-74
2020/12/15 08:22:24;;;;;;;7.72;5.18;;;9.50;93.50;;;;;;5075600;28;20070;-73
2020/12/15 08:24:55;;;;;;;9.13;5.57;;;9.50;93.50;;;;;;5075902;28;20031;-81
2020/12/15 08:27:23;;;;;;;7.35;4.70;;;9.50;93.50;;;;;;5075949;28;20059;-81
2020/12/15 08:29:49;;;;;;;7.32;5.32;;;9.50;93.50;;;;;;5075636;28;20031;-81
2020/12/15 08:32:25;;;;;;;6.40;4.93;;;9.50;93.50;;;;;;5075926;28;20024;-82
2020/12/15 08:35:00;;;;;;;9.68;5.10;;;9.50;93.50;;;;;;5075966;28;20020;-81
2020/12/15 08:37:26;;;;;;;7.45;5.10;;;9.60;93.50;;;;;;5075760;28;20024;-82
2020/12/15 08:39:53;;;;;;;7.88;5.07;;;9.60;93.50;;;;;;5075440;28;20077;-83
2020/12/15 08:42:19;;;;;;;7.32;5.68;;;9.60;93.50;;;;;;5075555;28;20030;-82
2020/12/15 08:44:45;;;;;;;9.68;5.25;;;9.60;93.80;;;;;;5058791;28;20050;-81
2020/12/15 08:47:18;;;;;;;10.82;4.88;;;9.50;93.50;;;;;;5075672;28;20472;-81
2020/12/15 08:49:45;;;;;;;7.55;5.28;;;9.60;93.60;;;;;;5093280;28;20048;-81
2020/12/15 08:52:22;;;;;;;7.47;5.55;;;9.60;93.50;;;;;;5058890;28;20030;-82
2020/12/15 08:54:48;;;;;;;9.02;4.75;;;9.60;93.60;;;;;;5075570;28;20022;-82
2020/12/15 08:57:17;;;;;;;8.95;5.10;;;9.60;93.50;;;;;;5093802;28;20118;-80
2020/12/15 08:59:43;;;;;;;;;;;9.70;93.60;;;;;;5094010;28;20026;-81
2020/12/15 09:02:12;;;;;;;6.63;4.53;;;9.70;93.50;;;;;;5075418;28;20002;-81
2020/12/15 09:04:39;;;;;;;7.68;4.43;;;9.70;93.60;;;;;;5093357;28;20028;-81
2020/12/15 09:07:17;;;;;;;6.80;4.30;;;9.70;93.80;;;;;;5093480;28;20046;-81
2020/12/15 09:09:43;;;;;;;5.25;4.47;;;9.70;93.60;;;;;;5074634;28;20519;-74
2020/12/15 09:12:10;;;;;;;7.93;4.85;;;9.70;93.50;;;;;;5095054;28;20053;-74
2020/12/15 09:14:36;;;;;;;7.45;4.68;;;9.70;93.50;;;;;;5097260;28;20389;-74
2020/12/15 09:17:02;;;;;;;7.95;4.88;;;9.80;93.50;;;;;;5062392;28;20028;-74
2020/12/15 09:19:27;;;;;;;5.30;4.38;;;9.80;93.50;;;;;;5097261;28;20059;-74
2020/12/15 09:22:01;;;;;;;6.00;4.65;;;9.80;93.50;;;;;;5079398;28;20054;-74
2020/12/15 09:24:27;;;;;;;7.20;4.40;;;9.80;93.60;;;;;;5062123;28;20028;-74
2020/12/15 09:26:53;;;;;;;8.35;5.38;;;9.80;93.60;;;;;;5097308;28;20020;-74
2020/12/15 09:29:19;;;;;;;7.22;4.78;;;9.80;93.60;;;;;;5096918;28;20134;-74
2020/12/15 09:31:55;;;;;;;5.45;4.50;;;9.80;93.60;;;;;;5062234;28;20039;-75
2020/12/15 09:34:21;;;;;;;7.57;5.18;;;9.80;93.60;;;;;;5079144;28;20023;-82
2020/12/15 09:36:57;;;;;;;6.63;4.50;;;9.80;93.60;;;;;;5079227;28;20105;-81
2020/12/15 09:39:27;;;;;;;6.45;4.07;;;9.80;93.70;;;;;;5097110;28;20373;-78
2020/12/15 09:41:53;;;;;;;7.18;4.05;;;9.80;93.70;;;;;;5078441;28;20122;-74
2020/12/15 09:44:18;;;;;;;5.18;4.20;;;9.80;93.70;;;;;;5079054;28;20059;-74
2020/12/15 09:46:44;;;;;;;6.82;4.88;;;9.80;93.60;;;;;;5078569;28;20108;-74
2020/12/15 09:49:11;;;;;;;6.20;4.55;;;9.90;93.70;;;;;;5078122;28;20474;-74
2020/12/15 09:51:39;;;;;;;7.32;4.25;;;9.90;94.00;;;;;;5096516;28;20032;-79
2020/12/15 09:54:05;;;;;;;5.15;4.25;;;9.80;93.70;;;;;;5096682;28;20025;-79
2020/12/15 09:56:31;;;;;;;7.35;4.55;;;9.90;93.70;;;;;;5078645;28;20035;-79
2020/12/15 09:58:56;;;;;;;4.68;4.10;;;9.90;93.70;;;;;;5096643;28;20073;-78
2020/12/15 10:01:22;;;;;;;7.25;4.35;;;9.90;93.70;;;;;;5099891;28;20115;-82
2020/12/15 10:03:48;;;;;;;5.65;4.50;;;9.90;94.00;;;;;;5133022;27;20042;-81
2020/12/15 10:06:15;;;;;;;6.00;4.00;;;10.00;93.70;;;;;;5098835;28;20076;-82
2020/12/15 10:08:41;;;;;;;6.00;4.30;;;10.00;93.70;;;;;;5103021;28;20032;-81
2020/12/15 10:11:06;;;;;;;4.80;3.90;;;10.00;93.70;;;;;;5061388;28;20032;-82
2020/12/15 10:13:32;;;;;;;5.85;3.90;;;10.00;93.70;;;;;;5078182;28;20024;-83
2020/12/15 10:15:58;;;;;;;4.07;3.63;;;10.00;93.90;;;;;;5096258;28;20027;-82
2020/12/15 10:18:23;;;;;;;5.72;4.05;;;10.00;93.70;;;;;;5078475;28;20044;-74
2020/12/15 10:20:49;;;;;;;5.55;3.90;;;10.00;93.70;;;;;;5096040;28;20487;-79
2020/12/15 10:23:15;;;;;;;4.85;3.97;;;10.10;93.70;;;;;;5077751;28;20032;-80
2020/12/15 10:25:41;;;;;;;4.40;3.97;;;10.10;93.70;;;;;;5061705;28;20476;-79
2020/12/15 10:28:09;;;;;;;5.18;3.47;;;10.10;93.70;;;;;;5078067;28;20046;-79
2020/12/15 10:30:35;;;;;;;4.05;3.65;;;10.10;93.60;;;;;;5096114;28;20439;-80
2020/12/15 10:33:01;;;;;;;6.00;3.78;;;10.20;93.60;;;;;;5096082;28;20056;-78
2020/12/15 10:35:26;;;;;;;6.75;3.50;;;10.20;93.60;;;;;;5057719;28;20023;-80
2020/12/15 10:37:52;;;;;;;5.28;2.90;;;10.20;93.60;;;;;;5085546;28;20060;-80
2020/12/15 10:40:17;;;;;;;3.90;3.15;;;10.20;93.50;;;;;;5077941;28;20032;-80
2020/12/15 10:42:43;;;;;;;3.90;3.22;;;10.20;93.50;;;;;;5061663;28;20082;-80
2020/12/15 10:45:09;;;;;;;4.20;3.40;;;10.20;93.50;;;;;;5096071;28;20111;-80
2020/12/15 10:47:35;;;;;;;6.05;3.85;;;10.20;93.50;;;;;;5061159;28;20126;-79
2020/12/15 10:50:01;;;;;;;5.57;3.55;;;10.20;93.60;;;;;;5061088;28;20048;-80
2020/12/15 10:52:26;;;;;;;4.28;3.58;;;10.20;93.60;;;;;;5077791;28;20031;-79
2020/12/15 10:54:52;;;;;;;4.78;3.45;;;10.20;93.60;;;;;;5095887;28;20028;-80
2020/12/15 10:57:18;;;;;;;5.90;2.78;;;10.20;93.60;;;;;;5077628;28;20043;-80
2020/12/15 10:59:43;;;;;;;4.20;3.60;;;10.20;93.60;;;;;;5077706;28;20024;-80
2020/12/15 11:02:11;;;;;;;4.55;3.25;;;10.20;93.60;;;;;;5077418;28;20029;-80
2020/12/15 11:04:37;;;;;;;4.05;3.47;;;10.20;93.60;;;;;;5077754;28;20020;-80
2020/12/15 11:07:02;;;;;;;4.30;3.35;;;10.20;93.60;;;;;;5060792;28;20035;-80
2020/12/15 11:09:28;;;;;;;4.93;3.40;;;10.30;93.60;;;;;;5095554;28;20024;-80
2020/12/15 11:11:54;;;;;;;6.45;3.17;;;10.30;93.60;;;;;;5095222;28;20500;-80
2020/12/15 11:14:20;;;;;;;4.65;3.13;;;10.30;93.60;;;;;;5060572;28;20036;-80
2020/12/15 11:16:46;;;;;;;4.72;3.60;;;10.30;93.60;;;;;;5095119;28;20024;-80
2020/12/15 11:19:11;;;;;;;5.80;4.28;;;10.30;93.60;;;;;;5060564;28;20437;-80
2020/12/15 11:21:37;;;;;;;5.18;3.95;;;10.30;93.60;;;;;;5060421;28;20059;-80
2020/12/15 11:24:03;;;;;;;4.18;3.75;;;10.30;93.50;;;;;;5095112;28;20039;-80
2020/12/15 11:26:28;;;;;;;4.75;3.78;;;10.30;93.60;;;;;;5076770;28;20114;-80
2020/12/15 11:28:54;;;;;;;5.07;3.47;;;10.30;93.60;;;;;;5077550;28;20043;-79
2020/12/15 11:31:19;;;;;;;4.80;3.40;;;10.30;93.60;;;;;;5094750;28;20036;-80
2020/12/15 11:33:46;;;;;;;7.32;3.70;;;10.20;93.60;;;;;;5059706;28;20473;-80
2020/12/15 11:36:13;;;;;;;5.63;3.47;;;10.20;93.60;;;;;;5094726;28;20028;-80
2020/12/15 11:38:43;;;;;;;4.97;4.07;;;10.30;93.60;;;;;;5094919;28;20372;-80
2020/12/15 11:41:08;;;;;;;3.95;3.47;;;10.20;93.60;;;;;;5094782;28;20028;-80
2020/12/15 11:43:34;;;;;;;3.50;3.20;;;10.20;93.60;;;;;;5094799;28;20035;-80
2020/12/15 11:45:59;;;;;;;4.07;3.55;;;10.20;93.70;;;;;;5059991;28;20030;-79
2020/12/15 11:48:25;;;;;;;4.53;3.30;;;10.20;93.70;;;;;;5059858;28;20032;-80
2020/12/15 11:50:51;;;;;;;4.90;3.15;;;10.20;93.70;;;;;;5075189;28;20048;-80
2020/12/15 11:53:16;;;;;;;4.45;3.17;;;10.20;93.70;;;;;;5073203;28;20040;-80
2020/12/15 11:55:42;;;;;;;4.63;2.97;;;10.20;93.70;;;;;;5073068;28;20036;-80
2020/12/15 11:58:08;;;;;;;3.40;3.05;;;10.20;93.70;;;;;;5073129;28;20032;-80
2020/12/15 12:00:33;;;;;;;4.72;2.78;;;10.20;93.70;;;;;;5074228;28;20473;-80
2020/12/15 12:02:59;;;;;;;4.57;3.25;;;10.20;93.70;;;;;;5072127;28;20481;-80
2020/12/15 12:05:24;;;;;;;8.30;3.83;;;10.20;93.70;;;;;;5074072;28;20036;-81
2020/12/15 12:07:50;;;;;;;6.25;3.35;;;10.20;93.80;;;;;;5072231;28;20060;-79
2020/12/15 12:10:16;;;;;;;5.65;3.28;;;10.20;93.70;;;;;;5072457;28;20035;-79
2020/12/15 12:12:41;;;;;;;4.43;3.35;;;10.20;93.80;;;;;;5073995;28;20048;-79
2020/12/15 12:15:07;;;;;;;7.00;4.35;;;10.20;93.80;;;;;;5073914;28;20098;-79
2020/12/15 12:17:33;;;;;;;3.33;3.03;;;10.20;93.80;;;;;;5072657;28;20020;-79
2020/12/15 12:19:59;;;;;;;5.95;3.40;;;10.20;93.80;;;;;;5073823;28;20035;-79
2020/12/15 12:22:24;;;;;;;5.18;3.35;;;10.20;93.80;;;;;;5073780;28;20098;-79
2020/12/15 12:24:51;;;;;;;3.92;3.35;;;10.20;93.80;;;;;;5073546;28;20045;-79
2020/12/15 12:27:16;;;;;;;4.43;3.30;;;10.20;93.80;;;;;;5055806;28;20028;-79
2020/12/15 12:29:42;;;;;;;3.78;3.30;;;10.20;93.80;;;;;;5072414;28;20027;-79
2020/12/15 12:32:08;;;;;;;5.78;4.10;;;10.20;93.80;;;;;;5072412;28;20032;-79
2020/12/15 12:34:34;;;;;;;5.40;3.25;;;10.30;93.80;;;;;;5073672;28;20029;-79
2020/12/15 12:37:01;;;;;;;6.38;3.72;;;10.30;93.80;;;;;;5072146;28;20032;-80
2020/12/15 12:39:27;;;;;;;4.53;3.40;;;10.30;93.90;;;;;;5072071;28;20128;-80
2020/12/15 12:41:52;;;;;;;4.03;3.50;;;10.30;93.90;;;;;;5071923;28;20141;-79
2020/12/15 12:44:21;;;;;;;4.47;3.28;;;10.30;93.80;;;;;;5072089;28;20017;-80
2020/12/15 12:46:50;;;;;;;5.05;4.20;;;10.30;93.80;;;;;;5072048;28;20029;-80
2020/12/15 12:49:16;;;;;;;;;;;10.30;93.80;;;;;;5055651;28;20493;-80
2020/12/15 12:51:44;;;;;;;7.28;4.50;;;10.20;93.80;;;;;;5071768;28;19948;-80
2020/12/15 12:54:11;;;;;;;6.95;4.07;;;10.30;93.90;;;;;;5073269;28;20017;-80